sensor_id;sensor_type;location;lat;lon;timestamp;temperature;humidity
23562;DHT22;11959;49.418;8.728;2023-05-02T00:00:21;13.20;99.90
23562;DHT22;11959;49.418;8.728;2023-05-02T00:02:46;13.20;99.90
23562;DHT22;11959;49.418;8.728;2023-05-02T00:05:12;13.20;99.90
23562;DHT22;11959;49.418;8.728;2023-05-02T00:07:38;13.20;99.90
23562;DHT22;11959;49.418;8.728;2023-05-02T00:10:04;13.10;99.90
23562;DHT22;11959;49.418;8.728;2023-05-02T00:12:30;13.10;99.90
23562;DHT22;11959;49.418;8.728;2023-05-02T00:14:56;13.10;99.90
23562;DHT22;11959;49.418;8.728;2023-05-02T00:17:21;13.10;99.90
23562;DHT22;11959;49.418;8.728;2023-05-02T00:19:47;13.10;99.90
23562;DHT22;11959;49.418;8.728;2023-05-02T00:22:13;13.10;99.90
23562;DHT22;11959;49.418;8.728;2023-05-02T00:24:38;13.10;99.90
23562;DHT22;11959;49.418;8.728;2023-05-02T00:27:04;13.10;99.90
23562;DHT22;11959;49.418;8.728;2023-05-02T00:29:30;13.10;99.90
23562;DHT22;11959;49.418;8.728;2023-05-02T00:31:56;13.10;99.90
23562;DHT22;11959;49.418;8.728;2023-05-02T00:34:23;13.10;99.90
23562;DHT22;11959;49.418;8.728;2023-05-02T00:36:49;13.10;99.90
23562;DHT22;11959;49.418;8.728;2023-05-02T00:39:14;13.10;99.90
23562;DHT22;11959;49.418;8.728;2023-05-02T00:41:40;13.10;99.90
23562;DHT22;11959;49.418;8.728;2023-05-02T00:44:06;13.10;99.90
23562;DHT22;11959;49.418;8.728;2023-05-02T00:46:33;13.00;99.90
23562;DHT22;11959;49.418;8.728;2023-05-02T00:49:00;13.00;99.90
23562;DHT22;11959;49.418;8.728;2023-05-02T00:51:25;13.00;99.90
23562;DHT22;11959;49.418;8.728;2023-05-02T00:53:52;13.00;99.90
23562;DHT22;11959;49.418;8.728;2023-05-02T00:56:18;13.00;99.90
23562;DHT22;11959;49.418;8.728;2023-05-02T00:58:45;12.90;99.90
23562;DHT22;11959;49.418;8.728;2023-05-02T01:06:51;12.80;99.90
23562;DHT22;11959;49.418;8.728;2023-05-02T01:09:48;12.90;99.90
23562;DHT22;11959;49.418;8.728;2023-05-02T01:12:18;12.90;99.90
23562;DHT22;11959;49.418;8.728;2023-05-02T01:14:51;12.90;99.90
23562;DHT22;11959;49.418;8.728;2023-05-02T01:17:18;12.80;99.90
23562;DHT22;11959;49.418;8.728;2023-05-02T01:19:51;12.80;99.90
23562;DHT22;11959;49.418;8.728;2023-05-02T01:22:20;12.80;99.90
23562;DHT22;11959;49.418;8.728;2023-05-02T01:25:01;12.70;99.90
23562;DHT22;11959;49.418;8.728;2023-05-02T01:30:02;12.70;99.90
23562;DHT22;11959;49.418;8.728;2023-05-02T01:32:30;12.70;99.90
23562;DHT22;11959;49.418;8.728;2023-05-02T01:34:58;12.60;99.90
23562;DHT22;11959;49.418;8.728;2023-05-02T01:37:27;12.60;99.90
23562;DHT22;11959;49.418;8.728;2023-05-02T01:39:55;12.50;99.90
23562;DHT22;11959;49.418;8.728;2023-05-02T01:42:22;12.40;99.90
23562;DHT22;11959;49.418;8.728;2023-05-02T01:44:51;12.40;99.90
23562;DHT22;11959;49.418;8.728;2023-05-02T01:47:18;12.30;99.90
23562;DHT22;11959;49.418;8.728;2023-05-02T01:49:45;12.20;99.90
23562;DHT22;11959;49.418;8.728;2023-05-02T01:52:13;12.30;99.90
23562;DHT22;11959;49.418;8.728;2023-05-02T01:54:39;12.20;99.90
23562;DHT22;11959;49.418;8.728;2023-05-02T01:57:07;12.20;99.90
23562;DHT22;11959;49.418;8.728;2023-05-02T01:59:34;12.20;99.90
23562;DHT22;11959;49.418;8.728;2023-05-02T02:02:01;12.20;99.90
23562;DHT22;11959;49.418;8.728;2023-05-02T02:04:29;12.10;99.90
23562;DHT22;11959;49.418;8.728;2023-05-02T02:07:02;12.00;99.90
23562;DHT22;11959;49.418;8.728;2023-05-02T02:09:29;12.00;99.90
23562;DHT22;11959;49.418;8.728;2023-05-02T02:12:05;12.00;99.90
23562;DHT22;11959;49.418;8.728;2023-05-02T02:14:36;12.00;99.90
23562;DHT22;11959;49.418;8.728;2023-05-02T02:17:10;12.00;99.90
23562;DHT22;11959;49.418;8.728;2023-05-02T02:19:38;12.00;99.90
23562;DHT22;11959;49.418;8.728;2023-05-02T02:22:05;12.00;99.90
23562;DHT22;11959;49.418;8.728;2023-05-02T02:24:35;12.00;99.90
23562;DHT22;11959;49.418;8.728;2023-05-02T02:27:01;12.00;99.90
23562;DHT22;11959;49.418;8.728;2023-05-02T02:29:27;12.00;99.90
23562;DHT22;11959;49.418;8.728;2023-05-02T02:31:52;11.90;99.90
23562;DHT22;11959;49.418;8.728;2023-05-02T02:34:19;11.90;99.90
23562;DHT22;11959;49.418;8.728;2023-05-02T02:39:54;11.80;99.90
23562;DHT22;11959;49.418;8.728;2023-05-02T02:48:02;11.70;99.90
23562;DHT22;11959;49.418;8.728;2023-05-02T02:50:45;11.70;99.90
23562;DHT22;11959;49.418;8.728;2023-05-02T02:53:22;11.70;99.90
23562;DHT22;11959;49.418;8.728;2023-05-02T02:55:56;11.70;99.90
23562;DHT22;11959;49.418;8.728;2023-05-02T03:00:56;11.60;99.90
23562;DHT22;11959;49.418;8.728;2023-05-02T03:03:25;11.60;99.90
23562;DHT22;11959;49.418;8.728;2023-05-02T03:05:57;11.60;99.90
23562;DHT22;11959;49.418;8.728;2023-05-02T03:08:23;11.50;99.90
23562;DHT22;11959;49.418;8.728;2023-05-02T03:10:49;11.50;99.90
23562;DHT22;11959;49.418;8.728;2023-05-02T03:13:15;11.40;99.90
23562;DHT22;11959;49.418;8.728;2023-05-02T03:18:16;11.30;99.90
23562;DHT22;11959;49.418;8.728;2023-05-02T03:20:42;11.30;99.90
23562;DHT22;11959;49.418;8.728;2023-05-02T03:23:08;11.30;99.90
23562;DHT22;11959;49.418;8.728;2023-05-02T03:25:33;11.30;99.90
23562;DHT22;11959;49.418;8.728;2023-05-02T03:27:59;11.30;99.90
23562;DHT22;11959;49.418;8.728;2023-05-02T03:30:25;11.30;99.90
23562;DHT22;11959;49.418;8.728;2023-05-02T03:32:51;11.30;99.90
23562;DHT22;11959;49.418;8.728;2023-05-02T03:35:16;11.20;99.90
23562;DHT22;11959;49.418;8.728;2023-05-02T03:37:43;11.20;99.90
23562;DHT22;11959;49.418;8.728;2023-05-02T03:40:08;11.10;99.90
23562;DHT22;11959;49.418;8.728;2023-05-02T03:42:34;11.10;99.90
23562;DHT22;11959;49.418;8.728;2023-05-02T03:45:06;11.10;99.90
23562;DHT22;11959;49.418;8.728;2023-05-02T03:47:32;11.00;99.90
23562;DHT22;11959;49.418;8.728;2023-05-02T03:49:58;11.00;99.90
23562;DHT22;11959;49.418;8.728;2023-05-02T03:52:24;10.90;99.90
23562;DHT22;11959;49.418;8.728;2023-05-02T03:54:50;10.90;99.90
23562;DHT22;11959;49.418;8.728;2023-05-02T03:57:16;10.80;99.90
23562;DHT22;11959;49.418;8.728;2023-05-02T03:59:42;10.80;99.90
23562;DHT22;11959;49.418;8.728;2023-05-02T04:02:10;10.80;99.90
23562;DHT22;11959;49.418;8.728;2023-05-02T04:04:36;10.70;99.90
23562;DHT22;11959;49.418;8.728;2023-05-02T04:07:02;10.60;99.90
23562;DHT22;11959;49.418;8.728;2023-05-02T04:09:27;10.60;99.90
23562;DHT22;11959;49.418;8.728;2023-05-02T04:11:53;10.60;99.90
23562;DHT22;11959;49.418;8.728;2023-05-02T04:14:19;10.60;99.90
23562;DHT22;11959;49.418;8.728;2023-05-02T04:16:48;10.60;99.90
23562;DHT22;11959;49.418;8.728;2023-05-02T04:19:15;10.50;99.90
23562;DHT22;11959;49.418;8.728;2023-05-02T04:21:41;10.60;99.90
23562;DHT22;11959;49.418;8.728;2023-05-02T04:24:07;10.60;99.90
23562;DHT22;11959;49.418;8.728;2023-05-02T04:26:33;10.60;99.90
23562;DHT22;11959;49.418;8.728;2023-05-02T04:28:59;10.60;99.90
23562;DHT22;11959;49.418;8.728;2023-05-02T04:31:25;10.60;99.90
23562;DHT22;11959;49.418;8.728;2023-05-02T04:33:51;10.60;99.90
23562;DHT22;11959;49.418;8.728;2023-05-02T04:36:17;10.60;99.90
23562;DHT22;11959;49.418;8.728;2023-05-02T04:38:43;10.60;99.90
23562;DHT22;11959;49.418;8.728;2023-05-02T04:41:09;10.60;99.90
23562;DHT22;11959;49.418;8.728;2023-05-02T04:43:36;10.60;99.90
23562;DHT22;11959;49.418;8.728;2023-05-02T04:46:01;10.60;99.90
23562;DHT22;11959;49.418;8.728;2023-05-02T04:48:27;10.60;99.90
23562;DHT22;11959;49.418;8.728;2023-05-02T04:50:52;10.60;99.90
23562;DHT22;11959;49.418;8.728;2023-05-02T04:53:20;10.70;99.90
23562;DHT22;11959;49.418;8.728;2023-05-02T04:55:46;10.70;99.90
23562;DHT22;11959;49.418;8.728;2023-05-02T04:58:12;10.70;99.90
23562;DHT22;11959;49.418;8.728;2023-05-02T05:00:37;10.80;99.90
23562;DHT22;11959;49.418;8.728;2023-05-02T05:03:03;10.90;99.90
23562;DHT22;11959;49.418;8.728;2023-05-02T05:05:30;11.00;99.90
23562;DHT22;11959;49.418;8.728;2023-05-02T05:07:56;11.00;99.90
23562;DHT22;11959;49.418;8.728;2023-05-02T05:10:22;11.00;99.90
23562;DHT22;11959;49.418;8.728;2023-05-02T05:12:47;11.10;99.90
23562;DHT22;11959;49.418;8.728;2023-05-02T05:15:14;11.10;99.90
23562;DHT22;11959;49.418;8.728;2023-05-02T05:17:40;11.10;99.90
23562;DHT22;11959;49.418;8.728;2023-05-02T05:20:06;11.20;99.90
23562;DHT22;11959;49.418;8.728;2023-05-02T05:22:40;11.20;99.90
23562;DHT22;11959;49.418;8.728;2023-05-02T05:25:07;11.20;99.90
23562;DHT22;11959;49.418;8.728;2023-05-02T05:27:33;11.10;99.90
23562;DHT22;11959;49.418;8.728;2023-05-02T05:29:59;11.10;99.90
23562;DHT22;11959;49.418;8.728;2023-05-02T05:32:25;11.10;99.90
23562;DHT22;11959;49.418;8.728;2023-05-02T05:34:51;11.10;99.90
23562;DHT22;11959;49.418;8.728;2023-05-02T05:37:18;11.10;99.90
23562;DHT22;11959;49.418;8.728;2023-05-02T05:39:44;11.10;99.90
23562;DHT22;11959;49.418;8.728;2023-05-02T05:42:10;11.10;99.90
23562;DHT22;11959;49.418;8.728;2023-05-02T05:44:37;11.10;99.90
23562;DHT22;11959;49.418;8.728;2023-05-02T05:47:03;11.20;99.90
23562;DHT22;11959;49.418;8.728;2023-05-02T05:49:29;11.20;99.90
23562;DHT22;11959;49.418;8.728;2023-05-02T05:51:55;11.30;99.90
23562;DHT22;11959;49.418;8.728;2023-05-02T05:54:20;11.40;99.90
23562;DHT22;11959;49.418;8.728;2023-05-02T05:56:46;11.40;99.90
23562;DHT22;11959;49.418;8.728;2023-05-02T05:59:12;11.40;99.90
23562;DHT22;11959;49.418;8.728;2023-05-02T06:01:38;11.50;99.90
23562;DHT22;11959;49.418;8.728;2023-05-02T06:04:04;11.60;99.90
23562;DHT22;11959;49.418;8.728;2023-05-02T06:06:30;11.70;99.90
23562;DHT22;11959;49.418;8.728;2023-05-02T06:08:57;11.80;99.90
23562;DHT22;11959;49.418;8.728;2023-05-02T06:11:22;11.90;99.90
23562;DHT22;11959;49.418;8.728;2023-05-02T06:13:51;11.90;99.90
23562;DHT22;11959;49.418;8.728;2023-05-02T06:16:18;12.00;99.90
23562;DHT22;11959;49.418;8.728;2023-05-02T06:18:44;12.10;99.90
23562;DHT22;11959;49.418;8.728;2023-05-02T06:21:10;12.10;99.90
23562;DHT22;11959;49.418;8.728;2023-05-02T06:23:35;12.20;99.90
23562;DHT22;11959;49.418;8.728;2023-05-02T06:26:03;12.30;99.90
23562;DHT22;11959;49.418;8.728;2023-05-02T06:28:29;12.40;99.90
23562;DHT22;11959;49.418;8.728;2023-05-02T06:31:03;12.50;99.90
23562;DHT22;11959;49.418;8.728;2023-05-02T06:33:29;12.60;99.90
23562;DHT22;11959;49.418;8.728;2023-05-02T06:35:55;12.70;99.90
23562;DHT22;11959;49.418;8.728;2023-05-02T06:38:21;12.80;99.90
23562;DHT22;11959;49.418;8.728;2023-05-02T06:40:48;12.80;99.90
23562;DHT22;11959;49.418;8.728;2023-05-02T06:43:14;12.90;99.90
23562;DHT22;11959;49.418;8.728;2023-05-02T06:45:40;13.00;99.90
23562;DHT22;11959;49.418;8.728;2023-05-02T06:48:06;13.10;99.90
23562;DHT22;11959;49.418;8.728;2023-05-02T06:50:32;13.20;99.90
23562;DHT22;11959;49.418;8.728;2023-05-02T06:52:58;13.30;99.90
23562;DHT22;11959;49.418;8.728;2023-05-02T06:55:24;13.40;99.90
23562;DHT22;11959;49.418;8.728;2023-05-02T06:57:50;13.60;99.90
23562;DHT22;11959;49.418;8.728;2023-05-02T07:00:17;13.80;99.90
23562;DHT22;11959;49.418;8.728;2023-05-02T07:02:44;13.80;99.90
23562;DHT22;11959;49.418;8.728;2023-05-02T07:05:10;13.90;99.90
23562;DHT22;11959;49.418;8.728;2023-05-02T07:07:35;14.00;99.90
23562;DHT22;11959;49.418;8.728;2023-05-02T07:10:02;14.00;99.90
23562;DHT22;11959;49.418;8.728;2023-05-02T07:12:28;14.00;99.90
23562;DHT22;11959;49.418;8.728;2023-05-02T07:14:54;13.90;99.90
23562;DHT22;11959;49.418;8.728;2023-05-02T07:17:20;13.90;99.90
23562;DHT22;11959;49.418;8.728;2023-05-02T07:19:46;14.00;99.90
23562;DHT22;11959;49.418;8.728;2023-05-02T07:22:11;14.00;99.90
23562;DHT22;11959;49.418;8.728;2023-05-02T07:24:41;13.90;99.90
23562;DHT22;11959;49.418;8.728;2023-05-02T07:27:10;14.00;99.90
23562;DHT22;11959;49.418;8.728;2023-05-02T07:29:36;14.10;99.90
23562;DHT22;11959;49.418;8.728;2023-05-02T07:32:03;14.10;99.90
23562;DHT22;11959;49.418;8.728;2023-05-02T07:34:29;14.20;99.90
23562;DHT22;11959;49.418;8.728;2023-05-02T07:36:54;14.30;99.90
23562;DHT22;11959;49.418;8.728;2023-05-02T07:39:21;14.30;99.90
23562;DHT22;11959;49.418;8.728;2023-05-02T07:41:51;14.40;99.90
23562;DHT22;11959;49.418;8.728;2023-05-02T07:44:16;14.40;99.90
23562;DHT22;11959;49.418;8.728;2023-05-02T07:46:42;14.40;99.90
23562;DHT22;11959;49.418;8.728;2023-05-02T07:49:08;14.40;99.90
23562;DHT22;11959;49.418;8.728;2023-05-02T07:51:33;14.40;99.90
23562;DHT22;11959;49.418;8.728;2023-05-02T07:53:59;14.30;99.90
23562;DHT22;11959;49.418;8.728;2023-05-02T07:56:25;14.10;99.90
23562;DHT22;11959;49.418;8.728;2023-05-02T07:58:51;14.10;99.90
23562;DHT22;11959;49.418;8.728;2023-05-02T08:01:17;14.00;99.90
23562;DHT22;11959;49.418;8.728;2023-05-02T08:03:44;14.00;99.90
23562;DHT22;11959;49.418;8.728;2023-05-02T08:06:09;14.20;99.90
23562;DHT22;11959;49.418;8.728;2023-05-02T08:08:35;14.40;99.90
23562;DHT22;11959;49.418;8.728;2023-05-02T08:11:01;14.50;99.90
23562;DHT22;11959;49.418;8.728;2023-05-02T08:13:27;14.60;99.90
23562;DHT22;11959;49.418;8.728;2023-05-02T08:15:53;14.70;99.90
23562;DHT22;11959;49.418;8.728;2023-05-02T08:18:26;14.90;99.90
23562;DHT22;11959;49.418;8.728;2023-05-02T08:20:53;14.90;99.90
23562;DHT22;11959;49.418;8.728;2023-05-02T08:23:20;15.00;99.90
23562;DHT22;11959;49.418;8.728;2023-05-02T08:25:45;15.10;99.90
23562;DHT22;11959;49.418;8.728;2023-05-02T08:28:11;15.00;99.90
23562;DHT22;11959;49.418;8.728;2023-05-02T08:30:37;15.00;99.90
23562;DHT22;11959;49.418;8.728;2023-05-02T08:33:02;15.10;99.90
23562;DHT22;11959;49.418;8.728;2023-05-02T08:35:28;15.20;99.90
23562;DHT22;11959;49.418;8.728;2023-05-02T08:37:57;15.20;99.90
23562;DHT22;11959;49.418;8.728;2023-05-02T08:40:22;15.30;99.90
23562;DHT22;11959;49.418;8.728;2023-05-02T08:42:48;15.20;99.90
23562;DHT22;11959;49.418;8.728;2023-05-02T08:45:15;15.30;99.90
23562;DHT22;11959;49.418;8.728;2023-05-02T08:47:41;15.30;99.90
23562;DHT22;11959;49.418;8.728;2023-05-02T08:50:08;15.40;99.90
23562;DHT22;11959;49.418;8.728;2023-05-02T08:52:35;15.40;99.90
23562;DHT22;11959;49.418;8.728;2023-05-02T08:55:03;15.60;99.90
23562;DHT22;11959;49.418;8.728;2023-05-02T08:57:29;15.60;99.90
23562;DHT22;11959;49.418;8.728;2023-05-02T08:59:56;15.40;99.90
23562;DHT22;11959;49.418;8.728;2023-05-02T09:02:42;15.40;99.90
23562;DHT22;11959;49.418;8.728;2023-05-02T09:05:11;15.50;99.90
23562;DHT22;11959;49.418;8.728;2023-05-02T09:07:45;15.60;99.90
23562;DHT22;11959;49.418;8.728;2023-05-02T09:10:12;15.80;99.90
23562;DHT22;11959;49.418;8.728;2023-05-02T09:12:38;15.90;99.90
23562;DHT22;11959;49.418;8.728;2023-05-02T09:17:43;15.90;99.90
23562;DHT22;11959;49.418;8.728;2023-05-02T09:20:11;16.00;99.90
23562;DHT22;11959;49.418;8.728;2023-05-02T09:22:37;16.10;99.90
23562;DHT22;11959;49.418;8.728;2023-05-02T09:25:05;16.30;99.90
23562;DHT22;11959;49.418;8.728;2023-05-02T09:27:48;16.40;99.90
23562;DHT22;11959;49.418;8.728;2023-05-02T09:30:18;16.30;99.90
23562;DHT22;11959;49.418;8.728;2023-05-02T09:32:44;16.10;99.90
23562;DHT22;11959;49.418;8.728;2023-05-02T09:35:10;16.00;99.90
23562;DHT22;11959;49.418;8.728;2023-05-02T09:37:36;16.00;99.90
23562;DHT22;11959;49.418;8.728;2023-05-02T09:40:06;16.00;99.90
23562;DHT22;11959;49.418;8.728;2023-05-02T09:42:33;15.80;99.90
23562;DHT22;11959;49.418;8.728;2023-05-02T09:45:00;15.80;99.90
23562;DHT22;11959;49.418;8.728;2023-05-02T09:47:26;15.80;99.90
23562;DHT22;11959;49.418;8.728;2023-05-02T09:49:52;15.80;99.90
23562;DHT22;11959;49.418;8.728;2023-05-02T09:52:19;16.00;99.90
23562;DHT22;11959;49.418;8.728;2023-05-02T09:54:48;16.20;99.90
23562;DHT22;11959;49.418;8.728;2023-05-02T09:57:18;16.40;99.90
23562;DHT22;11959;49.418;8.728;2023-05-02T09:59:57;16.60;99.90
23562;DHT22;11959;49.418;8.728;2023-05-02T10:02:23;16.80;99.90
23562;DHT22;11959;49.418;8.728;2023-05-02T10:04:52;16.60;99.90
23562;DHT22;11959;49.418;8.728;2023-05-02T10:07:18;16.40;99.90
23562;DHT22;11959;49.418;8.728;2023-05-02T10:09:45;16.40;99.90
23562;DHT22;11959;49.418;8.728;2023-05-02T10:12:14;16.50;99.90
23562;DHT22;11959;49.418;8.728;2023-05-02T10:14:48;16.50;99.90
23562;DHT22;11959;49.418;8.728;2023-05-02T10:17:29;16.60;99.90
23562;DHT22;11959;49.418;8.728;2023-05-02T10:20:06;16.60;99.90
23562;DHT22;11959;49.418;8.728;2023-05-02T10:22:35;16.60;99.90
23562;DHT22;11959;49.418;8.728;2023-05-02T10:25:02;16.60;99.90
23562;DHT22;11959;49.418;8.728;2023-05-02T10:27:29;16.70;99.90
23562;DHT22;11959;49.418;8.728;2023-05-02T10:29:57;16.70;99.90
23562;DHT22;11959;49.418;8.728;2023-05-02T10:32:25;16.60;99.90
23562;DHT22;11959;49.418;8.728;2023-05-02T10:34:54;16.50;99.90
23562;DHT22;11959;49.418;8.728;2023-05-02T10:37:22;16.50;99.90
23562;DHT22;11959;49.418;8.728;2023-05-02T10:39:49;16.30;99.90
23562;DHT22;11959;49.418;8.728;2023-05-02T10:42:15;16.30;99.90
23562;DHT22;11959;49.418;8.728;2023-05-02T10:44:43;16.20;99.90
23562;DHT22;11959;49.418;8.728;2023-05-02T10:47:22;16.20;99.90
23562;DHT22;11959;49.418;8.728;2023-05-02T10:49:56;16.20;99.90
23562;DHT22;11959;49.418;8.728;2023-05-02T10:52:31;16.30;99.90
23562;DHT22;11959;49.418;8.728;2023-05-02T10:55:21;16.50;99.90
23562;DHT22;11959;49.418;8.728;2023-05-02T11:00:31;17.00;99.90
23562;DHT22;11959;49.418;8.728;2023-05-02T11:02:58;17.10;99.90
23562;DHT22;11959;49.418;8.728;2023-05-02T11:05:25;17.10;99.90
23562;DHT22;11959;49.418;8.728;2023-05-02T11:10:42;17.30;99.90
23562;DHT22;11959;49.418;8.728;2023-05-02T11:13:08;17.50;99.90
23562;DHT22;11959;49.418;8.728;2023-05-02T11:18:09;17.70;99.90
23562;DHT22;11959;49.418;8.728;2023-05-02T11:20:39;17.80;99.90
23562;DHT22;11959;49.418;8.728;2023-05-02T11:25:56;17.90;99.90
23562;DHT22;11959;49.418;8.728;2023-05-02T11:28:41;18.00;99.90
23562;DHT22;11959;49.418;8.728;2023-05-02T11:31:54;17.90;99.90
23562;DHT22;11959;49.418;8.728;2023-05-02T11:34:02;17.70;99.90
23562;DHT22;11959;49.418;8.728;2023-05-02T11:38:54;17.70;99.90
23562;DHT22;11959;49.418;8.728;2023-05-02T11:41:19;17.90;99.90
23562;DHT22;11959;49.418;8.728;2023-05-02T11:43:45;18.10;99.90
23562;DHT22;11959;49.418;8.728;2023-05-02T11:46:11;18.40;99.90
23562;DHT22;11959;49.418;8.728;2023-05-02T11:48:37;18.60;99.90
23562;DHT22;11959;49.418;8.728;2023-05-02T11:51:03;18.40;99.90
23562;DHT22;11959;49.418;8.728;2023-05-02T11:53:30;18.10;99.90
23562;DHT22;11959;49.418;8.728;2023-05-02T11:55:58;17.80;99.90
23562;DHT22;11959;49.418;8.728;2023-05-02T11:58:26;17.50;99.90
23562;DHT22;11959;49.418;8.728;2023-05-02T12:00:57;17.30;99.90
23562;DHT22;11959;49.418;8.728;2023-05-02T12:03:31;17.30;99.90
23562;DHT22;11959;49.418;8.728;2023-05-02T12:06:07;17.20;99.90
23562;DHT22;11959;49.418;8.728;2023-05-02T12:08:36;17.40;99.90
23562;DHT22;11959;49.418;8.728;2023-05-02T12:11:02;17.40;99.90
23562;DHT22;11959;49.418;8.728;2023-05-02T12:13:28;17.60;99.90
23562;DHT22;11959;49.418;8.728;2023-05-02T12:15:54;17.70;99.90
23562;DHT22;11959;49.418;8.728;2023-05-02T12:18:22;17.80;99.90
23562;DHT22;11959;49.418;8.728;2023-05-02T12:20:50;17.90;99.90
23562;DHT22;11959;49.418;8.728;2023-05-02T12:23:17;17.90;99.90
23562;DHT22;11959;49.418;8.728;2023-05-02T12:25:43;17.70;99.90
23562;DHT22;11959;49.418;8.728;2023-05-02T12:28:09;18.00;99.90
23562;DHT22;11959;49.418;8.728;2023-05-02T12:30:37;18.00;99.90
23562;DHT22;11959;49.418;8.728;2023-05-02T12:33:04;18.00;99.90
23562;DHT22;11959;49.418;8.728;2023-05-02T12:35:31;18.10;99.90
23562;DHT22;11959;49.418;8.728;2023-05-02T12:38:16;18.20;99.90
23562;DHT22;11959;49.418;8.728;2023-05-02T12:40:50;18.40;99.90
23562;DHT22;11959;49.418;8.728;2023-05-02T12:43:17;18.50;99.90
23562;DHT22;11959;49.418;8.728;2023-05-02T12:45:42;18.40;99.90
23562;DHT22;11959;49.418;8.728;2023-05-02T12:48:24;18.40;99.90
23562;DHT22;11959;49.418;8.728;2023-05-02T12:50:52;18.40;99.90
23562;DHT22;11959;49.418;8.728;2023-05-02T12:53:42;18.30;99.90
23562;DHT22;11959;49.418;8.728;2023-05-02T12:56:09;18.30;99.90
23562;DHT22;11959;49.418;8.728;2023-05-02T12:58:42;18.50;99.90
23562;DHT22;11959;49.418;8.728;2023-05-02T13:01:08;18.70;99.90
23562;DHT22;11959;49.418;8.728;2023-05-02T13:03:35;18.70;99.90
23562;DHT22;11959;49.418;8.728;2023-05-02T13:06:01;18.80;99.90
23562;DHT22;11959;49.418;8.728;2023-05-02T13:08:27;18.90;99.90
23562;DHT22;11959;49.418;8.728;2023-05-02T13:10:52;19.00;99.90
23562;DHT22;11959;49.418;8.728;2023-05-02T13:13:18;19.00;99.90
23562;DHT22;11959;49.418;8.728;2023-05-02T13:15:44;18.90;99.90
23562;DHT22;11959;49.418;8.728;2023-05-02T13:18:09;19.00;99.90
23562;DHT22;11959;49.418;8.728;2023-05-02T13:20:35;19.10;99.90
23562;DHT22;11959;49.418;8.728;2023-05-02T13:23:01;18.90;99.90
23562;DHT22;11959;49.418;8.728;2023-05-02T13:25:27;18.90;99.90
23562;DHT22;11959;49.418;8.728;2023-05-02T13:27:52;18.70;99.90
23562;DHT22;11959;49.418;8.728;2023-05-02T13:30:18;18.60;99.90
23562;DHT22;11959;49.418;8.728;2023-05-02T13:32:44;18.50;99.90
23562;DHT22;11959;49.418;8.728;2023-05-02T13:35:09;18.40;99.90
23562;DHT22;11959;49.418;8.728;2023-05-02T13:37:40;18.50;99.90
23562;DHT22;11959;49.418;8.728;2023-05-02T13:40:07;18.50;99.90
23562;DHT22;11959;49.418;8.728;2023-05-02T13:42:33;18.70;99.90
23562;DHT22;11959;49.418;8.728;2023-05-02T13:44:59;18.60;99.90
23562;DHT22;11959;49.418;8.728;2023-05-02T13:47:27;18.70;99.90
23562;DHT22;11959;49.418;8.728;2023-05-02T13:49:52;18.70;99.90
23562;DHT22;11959;49.418;8.728;2023-05-02T13:52:18;18.80;99.90
23562;DHT22;11959;49.418;8.728;2023-05-02T13:54:44;18.70;99.90
23562;DHT22;11959;49.418;8.728;2023-05-02T13:57:10;18.50;99.90
23562;DHT22;11959;49.418;8.728;2023-05-02T13:59:36;18.50;99.90
23562;DHT22;11959;49.418;8.728;2023-05-02T14:02:01;18.60;99.90
23562;DHT22;11959;49.418;8.728;2023-05-02T14:04:27;18.60;99.90
23562;DHT22;11959;49.418;8.728;2023-05-02T14:06:53;18.60;99.90
23562;DHT22;11959;49.418;8.728;2023-05-02T14:09:18;18.60;99.90
23562;DHT22;11959;49.418;8.728;2023-05-02T14:11:45;18.70;99.90
23562;DHT22;11959;49.418;8.728;2023-05-02T14:14:12;18.80;99.90
23562;DHT22;11959;49.418;8.728;2023-05-02T14:16:38;18.90;99.90
23562;DHT22;11959;49.418;8.728;2023-05-02T14:19:03;18.90;99.90
23562;DHT22;11959;49.418;8.728;2023-05-02T14:21:29;18.90;99.90
23562;DHT22;11959;49.418;8.728;2023-05-02T14:23:56;18.90;99.90
23562;DHT22;11959;49.418;8.728;2023-05-02T14:26:22;19.10;99.90
23562;DHT22;11959;49.418;8.728;2023-05-02T14:28:48;19.20;99.90
23562;DHT22;11959;49.418;8.728;2023-05-02T14:31:14;19.10;99.90
23562;DHT22;11959;49.418;8.728;2023-05-02T14:33:39;19.10;99.90
23562;DHT22;11959;49.418;8.728;2023-05-02T14:36:05;19.10;99.90
23562;DHT22;11959;49.418;8.728;2023-05-02T14:38:31;19.20;99.90
23562;DHT22;11959;49.418;8.728;2023-05-02T14:40:57;19.30;99.90
23562;DHT22;11959;49.418;8.728;2023-05-02T14:43:22;19.30;99.90
23562;DHT22;11959;49.418;8.728;2023-05-02T14:45:48;19.20;99.90
23562;DHT22;11959;49.418;8.728;2023-05-02T14:48:14;19.30;99.90
23562;DHT22;11959;49.418;8.728;2023-05-02T14:50:42;19.40;99.90
23562;DHT22;11959;49.418;8.728;2023-05-02T14:53:08;19.50;99.90
23562;DHT22;11959;49.418;8.728;2023-05-02T14:55:37;19.60;99.90
23562;DHT22;11959;49.418;8.728;2023-05-02T14:58:07;19.40;99.90
23562;DHT22;11959;49.418;8.728;2023-05-02T15:00:34;19.20;99.90
23562;DHT22;11959;49.418;8.728;2023-05-02T15:03:03;19.20;99.90
23562;DHT22;11959;49.418;8.728;2023-05-02T15:05:29;19.20;99.90
23562;DHT22;11959;49.418;8.728;2023-05-02T15:07:54;19.30;99.90
23562;DHT22;11959;49.418;8.728;2023-05-02T15:10:20;19.30;99.90
23562;DHT22;11959;49.418;8.728;2023-05-02T15:12:46;19.30;99.90
23562;DHT22;11959;49.418;8.728;2023-05-02T15:15:18;19.30;99.90
23562;DHT22;11959;49.418;8.728;2023-05-02T15:17:44;19.20;99.90
23562;DHT22;11959;49.418;8.728;2023-05-02T15:20:10;19.10;99.90
23562;DHT22;11959;49.418;8.728;2023-05-02T15:22:36;19.20;99.90
23562;DHT22;11959;49.418;8.728;2023-05-02T15:25:02;19.30;99.90
23562;DHT22;11959;49.418;8.728;2023-05-02T15:27:28;19.30;99.90
23562;DHT22;11959;49.418;8.728;2023-05-02T15:29:54;19.40;99.90
23562;DHT22;11959;49.418;8.728;2023-05-02T15:32:19;19.30;99.90
23562;DHT22;11959;49.418;8.728;2023-05-02T15:34:46;19.50;99.90
23562;DHT22;11959;49.418;8.728;2023-05-02T15:37:12;19.50;99.90
23562;DHT22;11959;49.418;8.728;2023-05-02T15:39:37;19.60;99.90
23562;DHT22;11959;49.418;8.728;2023-05-02T15:42:04;19.50;99.90
23562;DHT22;11959;49.418;8.728;2023-05-02T15:44:36;19.20;99.10
23562;DHT22;11959;49.418;8.728;2023-05-02T15:47:02;19.20;99.00
23562;DHT22;11959;49.418;8.728;2023-05-02T15:49:28;19.20;99.20
23562;DHT22;11959;49.418;8.728;2023-05-02T15:51:58;19.20;99.90
23562;DHT22;11959;49.418;8.728;2023-05-02T15:54:23;19.20;99.80
23562;DHT22;11959;49.418;8.728;2023-05-02T15:56:49;19.30;99.90
23562;DHT22;11959;49.418;8.728;2023-05-02T15:59:15;19.40;99.90
23562;DHT22;11959;49.418;8.728;2023-05-02T16:01:40;19.50;99.90
23562;DHT22;11959;49.418;8.728;2023-05-02T16:04:06;19.40;99.90
23562;DHT22;11959;49.418;8.728;2023-05-02T16:06:34;19.50;99.90
23562;DHT22;11959;49.418;8.728;2023-05-02T16:09:01;19.50;99.10